sensor_id;sensor_type;location;lat;lon;timestamp;pressure;altitude;pressure_sealevel;temperature;humidity
4012;BME280;2020;48.682;9.024;2022-11-15T00:01:06;96249.44;;;6.16;92.61
4012;BME280;2020;48.682;9.024;2022-11-15T00:03:31;96247.53;;;6.08;92.75
4012;BME280;2020;48.682;9.024;2022-11-15T00:06:01;96242.44;;;5.97;93.57
4012;BME280;2020;48.682;9.024;2022-11-15T00:08:29;96236.56;;;5.95;93.97
4012;BME280;2020;48.682;9.024;2022-11-15T00:10:57;96235.38;;;5.99;92.82
4012;BME280;2020;48.682;9.024;2022-11-15T00:13:23;96232.34;;;5.94;93.37
4012;BME280;2020;48.682;9.024;2022-11-15T00:15:48;96236.78;;;6.03;92.76
4012;BME280;2020;48.682;9.024;2022-11-15T00:18:14;96225.75;;;6.01;92.83
4012;BME280;2020;48.682;9.024;2022-11-15T00:20:40;96231.63;;;6.03;92.27
4012;BME280;2020;48.682;9.024;2022-11-15T00:23:06;96225.50;;;6.04;92.26
4012;BME280;2020;48.682;9.024;2022-11-15T00:25:32;96223.34;;;6.09;92.11
4012;BME280;2020;48.682;9.024;2022-11-15T00:27:58;96222.22;;;6.02;91.79
4012;BME280;2020;48.682;9.024;2022-11-15T00:30:24;96224.88;;;5.91;92.72
4012;BME280;2020;48.682;9.024;2022-11-15T00:32:50;96220.22;;;5.84;92.38
4012;BME280;2020;48.682;9.024;2022-11-15T00:35:15;96227.28;;;5.82;92.59
4012;BME280;2020;48.682;9.024;2022-11-15T00:37:40;96216.97;;;5.82;92.39
4012;BME280;2020;48.682;9.024;2022-11-15T00:40:07;96212.06;;;5.79;92.40
4012;BME280;2020;48.682;9.024;2022-11-15T00:42:32;96208.78;;;5.77;92.46
4012;BME280;2020;48.682;9.024;2022-11-15T00:44:57;96209.31;;;5.71;93.11
4012;BME280;2020;48.682;9.024;2022-11-15T00:47:23;96211.47;;;5.66;92.68
4012;BME280;2020;48.682;9.024;2022-11-15T00:49:48;96207.41;;;5.73;92.50
4012;BME280;2020;48.682;9.024;2022-11-15T00:52:13;96213.63;;;5.61;91.98
4012;BME280;2020;48.682;9.024;2022-11-15T00:54:38;96210.88;;;5.52;92.84
4012;BME280;2020;48.682;9.024;2022-11-15T00:57:04;96200.97;;;5.48;92.72
4012;BME280;2020;48.682;9.024;2022-11-15T00:59:29;96205.97;;;5.49;92.98
4012;BME280;2020;48.682;9.024;2022-11-15T01:01:55;96201.91;;;5.47;93.35
4012;BME280;2020;48.682;9.024;2022-11-15T01:04:20;96199.97;;;5.39;92.92
4012;BME280;2020;48.682;9.024;2022-11-15T01:06:45;96201.16;;;5.35;92.52
4012;BME280;2020;48.682;9.024;2022-11-15T01:09:11;96196.25;;;5.32;92.59
4012;BME280;2020;48.682;9.024;2022-11-15T01:11:36;96192.31;;;5.27;92.72
4012;BME280;2020;48.682;9.024;2022-11-15T01:14:01;96196.34;;;5.20;92.11
4012;BME280;2020;48.682;9.024;2022-11-15T01:16:26;96194.72;;;5.19;92.54
4012;BME280;2020;48.682;9.024;2022-11-15T01:18:52;96195.75;;;5.07;94.21
4012;BME280;2020;48.682;9.024;2022-11-15T01:21:19;96187.56;;;5.02;94.43
4012;BME280;2020;48.682;9.024;2022-11-15T01:23:44;96193.41;;;5.04;94.55
4012;BME280;2020;48.682;9.024;2022-11-15T01:26:12;96191.28;;;4.88;95.13
4012;BME280;2020;48.682;9.024;2022-11-15T01:28:40;96186.69;;;4.91;94.56
4012;BME280;2020;48.682;9.024;2022-11-15T01:31:14;96183.97;;;4.93;93.65
4012;BME280;2020;48.682;9.024;2022-11-15T01:33:40;96174.50;;;4.93;94.07
4012;BME280;2020;48.682;9.024;2022-11-15T01:36:07;96172.84;;;4.92;94.44
4012;BME280;2020;48.682;9.024;2022-11-15T01:38:34;96169.94;;;4.86;95.57
4012;BME280;2020;48.682;9.024;2022-11-15T01:40:59;96177.50;;;4.98;94.56
4012;BME280;2020;48.682;9.024;2022-11-15T01:48:30;96169.06;;;4.96;95.58
4012;BME280;2020;48.682;9.024;2022-11-15T01:50:57;96170.31;;;5.02;95.32
4012;BME280;2020;48.682;9.024;2022-11-15T01:53:24;96171.00;;;5.04;94.77
4012;BME280;2020;48.682;9.024;2022-11-15T01:55:50;96170.97;;;4.94;95.29
4012;BME280;2020;48.682;9.024;2022-11-15T01:58:16;96172.84;;;4.92;94.62
4012;BME280;2020;48.682;9.024;2022-11-15T02:00:41;96159.63;;;5.07;95.40
4012;BME280;2020;48.682;9.024;2022-11-15T02:03:07;96162.63;;;5.12;94.75
4012;BME280;2020;48.682;9.024;2022-11-15T02:05:33;96161.09;;;5.00;94.18
4012;BME280;2020;48.682;9.024;2022-11-15T02:08:00;96152.06;;;5.15;93.45
4012;BME280;2020;48.682;9.024;2022-11-15T02:10:27;96157.06;;;5.17;93.43
4012;BME280;2020;48.682;9.024;2022-11-15T02:12:53;96151.19;;;5.05;95.08
4012;BME280;2020;48.682;9.024;2022-11-15T02:15:20;96147.09;;;5.02;96.04
4012;BME280;2020;48.682;9.024;2022-11-15T02:21:05;96140.81;;;4.95;95.26
4012;BME280;2020;48.682;9.024;2022-11-15T02:23:58;96140.81;;;4.95;95.62
4012;BME280;2020;48.682;9.024;2022-11-15T02:29:36;96131.75;;;5.01;97.12
4012;BME280;2020;48.682;9.024;2022-11-15T02:32:22;96126.19;;;4.95;97.90
4012;BME280;2020;48.682;9.024;2022-11-15T02:35:17;96116.53;;;4.97;97.46
4012;BME280;2020;48.682;9.024;2022-11-15T02:37:51;96120.25;;;5.05;97.82
4012;BME280;2020;48.682;9.024;2022-11-15T02:40:36;96120.50;;;5.02;98.37
4012;BME280;2020;48.682;9.024;2022-11-15T02:43:09;96119.94;;;4.98;97.10
4012;BME280;2020;48.682;9.024;2022-11-15T02:48:43;96118.88;;;5.01;97.40
4012;BME280;2020;48.682;9.024;2022-11-15T02:51:09;96116.81;;;4.94;98.52
4012;BME280;2020;48.682;9.024;2022-11-15T02:53:34;96100.91;;;4.89;97.56
4012;BME280;2020;48.682;9.024;2022-11-15T02:56:00;96099.25;;;4.88;97.08
4012;BME280;2020;48.682;9.024;2022-11-15T03:03:56;96100.59;;;4.82;97.56
4012;BME280;2020;48.682;9.024;2022-11-15T03:06:57;96096.00;;;4.86;96.79
4012;BME280;2020;48.682;9.024;2022-11-15T03:09:42;96089.16;;;4.75;97.06
4012;BME280;2020;48.682;9.024;2022-11-15T03:12:19;96082.66;;;4.81;98.50
4012;BME280;2020;48.682;9.024;2022-11-15T03:15:01;96084.34;;;4.92;98.03
4012;BME280;2020;48.682;9.024;2022-11-15T03:17:36;96077.16;;;4.95;96.35
4012;BME280;2020;48.682;9.024;2022-11-15T03:20:06;96086.28;;;5.00;98.41
4012;BME280;2020;48.682;9.024;2022-11-15T03:25:54;96079.50;;;4.98;98.27
4012;BME280;2020;48.682;9.024;2022-11-15T03:28:32;96069.84;;;5.01;97.38
4012;BME280;2020;48.682;9.024;2022-11-15T03:31:00;96063.75;;;5.02;97.93
4012;BME280;2020;48.682;9.024;2022-11-15T03:33:47;96077.34;;;5.04;98.37
4012;BME280;2020;48.682;9.024;2022-11-15T03:36:16;96073.38;;;5.00;97.54
4012;BME280;2020;48.682;9.024;2022-11-15T03:38:42;96068.22;;;5.00;98.51
4012;BME280;2020;48.682;9.024;2022-11-15T03:41:19;96066.59;;;4.98;97.74
4012;BME280;2020;48.682;9.024;2022-11-15T03:44:05;96061.28;;;5.00;98.19
4012;BME280;2020;48.682;9.024;2022-11-15T03:47:01;96057.22;;;5.07;97.86
4012;BME280;2020;48.682;9.024;2022-11-15T03:49:34;96062.28;;;5.09;96.90
4012;BME280;2020;48.682;9.024;2022-11-15T03:52:02;96064.03;;;5.08;97.59
4012;BME280;2020;48.682;9.024;2022-11-15T03:54:28;96063.50;;;5.05;97.47
4012;BME280;2020;48.682;9.024;2022-11-15T03:56:53;96059.97;;;5.06;98.38
4012;BME280;2020;48.682;9.024;2022-11-15T03:59:19;96063.44;;;4.95;98.97
4012;BME280;2020;48.682;9.024;2022-11-15T04:01:44;96063.16;;;4.88;99.50
4012;BME280;2020;48.682;9.024;2022-11-15T04:04:10;96056.91;;;4.91;99.15
4012;BME280;2020;48.682;9.024;2022-11-15T04:06:35;96054.47;;;4.89;99.53
4012;BME280;2020;48.682;9.024;2022-11-15T04:09:00;96053.94;;;4.95;99.61
4012;BME280;2020;48.682;9.024;2022-11-15T04:11:26;96056.09;;;4.90;100.00
4012;BME280;2020;48.682;9.024;2022-11-15T04:13:51;96050.81;;;4.92;99.41
4012;BME280;2020;48.682;9.024;2022-11-15T04:16:16;96060.19;;;4.93;100.00
4012;BME280;2020;48.682;9.024;2022-11-15T04:18:41;96060.19;;;4.93;99.77
4012;BME280;2020;48.682;9.024;2022-11-15T04:21:08;96058.31;;;5.05;99.12
4012;BME280;2020;48.682;9.024;2022-11-15T04:23:51;96048.53;;;4.98;100.00
4012;BME280;2020;48.682;9.024;2022-11-15T04:26:32;96060.22;;;5.03;99.79
4012;BME280;2020;48.682;9.024;2022-11-15T04:28:58;96046.75;;;4.99;99.74
4012;BME280;2020;48.682;9.024;2022-11-15T04:31:41;96048.78;;;4.95;100.00
4012;BME280;2020;48.682;9.024;2022-11-15T04:34:07;96044.06;;;5.01;100.00
4012;BME280;2020;48.682;9.024;2022-11-15T04:36:32;96037.97;;;5.02;100.00
4012;BME280;2020;48.682;9.024;2022-11-15T04:39:16;96045.81;;;5.00;99.29
4012;BME280;2020;48.682;9.024;2022-11-15T04:41:42;96044.75;;;5.03;100.00
4012;BME280;2020;48.682;9.024;2022-11-15T04:44:07;96034.16;;;5.06;100.00
4012;BME280;2020;48.682;9.024;2022-11-15T04:46:32;96035.22;;;5.03;100.00
4012;BME280;2020;48.682;9.024;2022-11-15T04:48:58;96038.91;;;5.01;100.00
4012;BME280;2020;48.682;9.024;2022-11-15T04:51:23;96036.06;;;5.04;100.00
4012;BME280;2020;48.682;9.024;2022-11-15T04:53:48;96030.06;;;5.03;100.00
4012;BME280;2020;48.682;9.024;2022-11-15T04:56:13;96036.59;;;5.07;99.50
4012;BME280;2020;48.682;9.024;2022-11-15T04:58:39;96033.91;;;5.09;99.24
4012;BME280;2020;48.682;9.024;2022-11-15T05:01:08;96030.91;;;5.04;100.00
4012;BME280;2020;48.682;9.024;2022-11-15T05:03:34;96023.84;;;5.06;100.00
4012;BME280;2020;48.682;9.024;2022-11-15T05:06:17;96024.38;;;5.00;100.00
4012;BME280;2020;48.682;9.024;2022-11-15T05:08:43;96020.28;;;4.97;100.00
4012;BME280;2020;48.682;9.024;2022-11-15T05:11:08;96021.63;;;4.91;100.00
4012;BME280;2020;48.682;9.024;2022-11-15T05:13:37;96028.00;;;4.87;100.00
4012;BME280;2020;48.682;9.024;2022-11-15T05:16:02;96022.44;;;4.92;100.00
4012;BME280;2020;48.682;9.024;2022-11-15T05:18:27;96020.00;;;4.90;100.00
4012;BME280;2020;48.682;9.024;2022-11-15T05:20:52;96015.09;;;4.87;100.00
4012;BME280;2020;48.682;9.024;2022-11-15T05:23:18;96013.47;;;4.86;100.00
4012;BME280;2020;48.682;9.024;2022-11-15T05:25:43;96008.06;;;4.89;100.00
4012;BME280;2020;48.682;9.024;2022-11-15T05:28:08;96009.69;;;4.90;100.00
4012;BME280;2020;48.682;9.024;2022-11-15T05:30:34;96013.22;;;4.89;100.00
4012;BME280;2020;48.682;9.024;2022-11-15T05:32:59;96004.53;;;4.90;100.00
4012;BME280;2020;48.682;9.024;2022-11-15T05:35:33;96002.91;;;4.89;100.00
4012;BME280;2020;48.682;9.024;2022-11-15T05:38:00;96001.00;;;4.91;100.00
4012;BME280;2020;48.682;9.024;2022-11-15T05:40:27;96005.91;;;4.94;100.00
4012;BME280;2020;48.682;9.024;2022-11-15T05:42:52;95996.78;;;4.90;100.00
4012;BME280;2020;48.682;9.024;2022-11-15T05:45:18;96001.25;;;4.88;100.00
4012;BME280;2020;48.682;9.024;2022-11-15T05:47:44;95997.47;;;4.92;100.00
4012;BME280;2020;48.682;9.024;2022-11-15T05:50:12;95995.16;;;4.89;100.00
4012;BME280;2020;48.682;9.024;2022-11-15T05:52:40;95996.63;;;4.82;99.67
4012;BME280;2020;48.682;9.024;2022-11-15T05:55:06;95989.84;;;4.81;99.97
4012;BME280;2020;48.682;9.024;2022-11-15T05:57:32;95993.63;;;4.77;100.00
4012;BME280;2020;48.682;9.024;2022-11-15T05:59:57;95992.00;;;4.76;100.00
4012;BME280;2020;48.682;9.024;2022-11-15T06:02:23;95993.63;;;4.77;100.00
4012;BME280;2020;48.682;9.024;2022-11-15T06:04:48;95990.63;;;4.72;100.00
4012;BME280;2020;48.682;9.024;2022-11-15T06:07:13;95987.38;;;4.70;99.82
4012;BME280;2020;48.682;9.024;2022-11-15T06:09:39;95992.25;;;4.73;100.00
4012;BME280;2020;48.682;9.024;2022-11-15T06:12:04;95992.00;;;4.76;100.00
4012;BME280;2020;48.682;9.024;2022-11-15T06:14:29;95992.53;;;4.70;100.00
4012;BME280;2020;48.682;9.024;2022-11-15T06:16:55;95993.75;;;4.75;99.54
4012;BME280;2020;48.682;9.024;2022-11-15T06:19:20;95994.56;;;4.76;100.00
4012;BME280;2020;48.682;9.024;2022-11-15T06:21:46;95990.63;;;4.72;99.38
4012;BME280;2020;48.682;9.024;2022-11-15T06:24:11;95990.88;;;4.68;99.27
4012;BME280;2020;48.682;9.024;2022-11-15T06:26:36;95996.53;;;4.62;100.00
4012;BME280;2020;48.682;9.024;2022-11-15T06:29:03;96003.31;;;4.63;99.49
4012;BME280;2020;48.682;9.024;2022-11-15T06:31:29;96001.19;;;4.68;99.49
4012;BME280;2020;48.682;9.024;2022-11-15T06:33:54;96007.72;;;4.73;99.48
4012;BME280;2020;48.682;9.024;2022-11-15T06:36:20;96003.38;;;4.73;99.34
4012;BME280;2020;48.682;9.024;2022-11-15T06:38:46;96009.63;;;4.71;99.61
4012;BME280;2020;48.682;9.024;2022-11-15T06:41:12;96005.84;;;4.75;99.84
4012;BME280;2020;48.682;9.024;2022-11-15T06:43:38;96007.75;;;4.82;100.00
4012;BME280;2020;48.682;9.024;2022-11-15T06:46:05;96009.09;;;4.77;100.00
4012;BME280;2020;48.682;9.024;2022-11-15T06:48:31;96004.09;;;4.85;99.51
4012;BME280;2020;48.682;9.024;2022-11-15T06:50:58;96004.53;;;4.90;99.87
4012;BME280;2020;48.682;9.024;2022-11-15T06:53:24;96009.00;;;4.98;100.00
4012;BME280;2020;48.682;9.024;2022-11-15T06:55:50;96015.94;;;4.97;100.00
4012;BME280;2020;48.682;9.024;2022-11-15T06:58:16;96017.59;;;5.08;100.00
4012;BME280;2020;48.682;9.024;2022-11-15T07:00:41;96017.94;;;5.35;99.95
4012;BME280;2020;48.682;9.024;2022-11-15T07:03:07;96016.59;;;5.50;98.21
4012;BME280;2020;48.682;9.024;2022-11-15T07:05:33;96013.31;;;5.48;96.96
4012;BME280;2020;48.682;9.024;2022-11-15T07:07:59;96016.84;;;5.47;97.56
4012;BME280;2020;48.682;9.024;2022-11-15T07:10:25;96013.63;;;5.55;97.64
4012;BME280;2020;48.682;9.024;2022-11-15T07:12:54;96020.53;;;5.54;97.30
4012;BME280;2020;48.682;9.024;2022-11-15T07:15:24;96025.00;;;5.52;97.69
4012;BME280;2020;48.682;9.024;2022-11-15T07:17:50;96019.84;;;5.52;97.63
4012;BME280;2020;48.682;9.024;2022-11-15T07:20:17;96024.63;;;5.57;97.31
4012;BME280;2020;48.682;9.024;2022-11-15T07:22:43;96018.50;;;5.68;97.99
4012;BME280;2020;48.682;9.024;2022-11-15T07:25:10;96014.16;;;5.68;96.22
4012;BME280;2020;48.682;9.024;2022-11-15T07:27:36;96012.66;;;5.76;97.76
4012;BME280;2020;48.682;9.024;2022-11-15T07:30:01;96013.03;;;5.91;97.84
4012;BME280;2020;48.682;9.024;2022-11-15T07:32:27;96015.94;;;6.07;97.97
4012;BME280;2020;48.682;9.024;2022-11-15T07:34:52;96010.50;;;6.10;96.97
4012;BME280;2020;48.682;9.024;2022-11-15T07:37:17;96006.25;;;6.19;97.30
4012;BME280;2020;48.682;9.024;2022-11-15T07:39:43;95996.97;;;6.36;96.49
4012;BME280;2020;48.682;9.024;2022-11-15T07:42:08;95990.63;;;6.58;96.07
4012;BME280;2020;48.682;9.024;2022-11-15T07:44:52;95997.88;;;6.83;95.49
4012;BME280;2020;48.682;9.024;2022-11-15T07:47:17;95994.34;;;6.84;94.57
4012;BME280;2020;48.682;9.024;2022-11-15T07:49:42;95994.31;;;6.94;94.78
4012;BME280;2020;48.682;9.024;2022-11-15T07:52:08;96004.88;;;7.00;94.69
4012;BME280;2020;48.682;9.024;2022-11-15T07:54:33;95995.00;;;7.14;92.62
4012;BME280;2020;48.682;9.024;2022-11-15T07:56:58;95987.59;;;7.19;91.79
4012;BME280;2020;48.682;9.024;2022-11-15T07:59:24;95992.19;;;7.25;90.67
4012;BME280;2020;48.682;9.024;2022-11-15T08:01:49;95996.75;;;7.41;89.81
4012;BME280;2020;48.682;9.024;2022-11-15T08:04:14;95987.34;;;7.58;88.11
4012;BME280;2020;48.682;9.024;2022-11-15T08:06:40;95991.94;;;7.65;87.50
4012;BME280;2020;48.682;9.024;2022-11-15T08:09:05;95996.22;;;7.74;86.08
4012;BME280;2020;48.682;9.024;2022-11-15T08:11:30;95993.78;;;7.90;85.68
4012;BME280;2020;48.682;9.024;2022-11-15T08:13:55;95993.75;;;8.09;84.74
4012;BME280;2020;48.682;9.024;2022-11-15T08:16:21;95998.16;;;8.16;83.73
4012;BME280;2020;48.682;9.024;2022-11-15T08:18:46;95994.88;;;8.32;83.74
4012;BME280;2020;48.682;9.024;2022-11-15T08:21:14;95982.97;;;8.48;82.96
4012;BME280;2020;48.682;9.024;2022-11-15T08:23:42;95981.56;;;8.54;81.91
4012;BME280;2020;48.682;9.024;2022-11-15T08:26:08;95981.66;;;8.70;81.08
4012;BME280;2020;48.682;9.024;2022-11-15T08:28:34;95986.28;;;8.93;80.58
4012;BME280;2020;48.682;9.024;2022-11-15T08:30:59;95978.25;;;9.21;79.65
4012;BME280;2020;48.682;9.024;2022-11-15T08:33:25;95972.13;;;9.55;78.78
4012;BME280;2020;48.682;9.024;2022-11-15T08:35:50;95969.88;;;9.69;79.28
4012;BME280;2020;48.682;9.024;2022-11-15T08:38:15;95969.53;;;9.72;76.72
4012;BME280;2020;48.682;9.024;2022-11-15T08:40:41;95960.13;;;9.79;76.53
4012;BME280;2020;48.682;9.024;2022-11-15T08:43:06;95962.72;;;9.87;76.74
4012;BME280;2020;48.682;9.024;2022-11-15T08:45:34;95961.94;;;9.87;76.12
4012;BME280;2020;48.682;9.024;2022-11-15T08:48:01;95960.59;;;10.07;78.23
4012;BME280;2020;48.682;9.024;2022-11-15T08:50:27;95953.28;;;10.28;75.93
4012;BME280;2020;48.682;9.024;2022-11-15T08:52:52;95950.47;;;10.46;75.39
4012;BME280;2020;48.682;9.024;2022-11-15T08:55:17;95952.25;;;10.53;74.09
4012;BME280;2020;48.682;9.024;2022-11-15T08:57:43;95954.34;;;10.66;77.18
4012;BME280;2020;48.682;9.024;2022-11-15T09:00:09;95951.25;;;10.63;73.58
4012;BME280;2020;48.682;9.024;2022-11-15T09:02:34;95950.56;;;10.69;75.14
4012;BME280;2020;48.682;9.024;2022-11-15T09:05:02;95947.56;;;10.89;77.70
4012;BME280;2020;48.682;9.024;2022-11-15T09:07:27;95946.53;;;10.66;73.02
4012;BME280;2020;48.682;9.024;2022-11-15T09:09:54;95942.47;;;10.64;75.23
4012;BME280;2020;48.682;9.024;2022-11-15T09:12:20;95938.59;;;10.51;74.79
4012;BME280;2020;48.682;9.024;2022-11-15T09:14:45;95946.78;;;10.40;74.69
4012;BME280;2020;48.682;9.024;2022-11-15T09:17:10;95947.41;;;10.34;73.75
4012;BME280;2020;48.682;9.024;2022-11-15T09:19:35;95944.09;;;10.65;75.03
4012;BME280;2020;48.682;9.024;2022-11-15T09:22:05;95943.38;;;10.79;73.24
4012;BME280;2020;48.682;9.024;2022-11-15T09:24:31;95941.91;;;10.85;73.14
4012;BME280;2020;48.682;9.024;2022-11-15T09:26:56;95941.38;;;10.90;72.19
4012;BME280;2020;48.682;9.024;2022-11-15T09:29:21;95938.72;;;10.98;72.47
4012;BME280;2020;48.682;9.024;2022-11-15T09:31:46;95938.03;;;11.04;70.92
4012;BME280;2020;48.682;9.024;2022-11-15T09:34:12;95936.72;;;11.08;71.84
4012;BME280;2020;48.682;9.024;2022-11-15T09:36:37;95948.06;;;11.16;73.87
4012;BME280;2020;48.682;9.024;2022-11-15T09:39:02;95943.84;;;11.15;73.28
4012;BME280;2020;48.682;9.024;2022-11-15T09:49:59;95931.28;;;10.87;73.77
4012;BME280;2020;48.682;9.024;2022-11-15T09:52:25;95927.06;;;10.86;74.90
4012;BME280;2020;48.682;9.024;2022-11-15T09:54:51;95929.34;;;10.89;76.89
4012;BME280;2020;48.682;9.024;2022-11-15T10:00:20;95917.63;;;10.85;74.52
4012;BME280;2020;48.682;9.024;2022-11-15T10:03:09;95923.19;;;10.81;75.33
4012;BME280;2020;48.682;9.024;2022-11-15T10:05:57;95922.50;;;10.88;76.38
4012;BME280;2020;48.682;9.024;2022-11-15T10:11:25;95910.75;;;10.92;75.40
4012;BME280;2020;48.682;9.024;2022-11-15T10:13:53;95908.16;;;10.92;76.11
4012;BME280;2020;48.682;9.024;2022-11-15T10:19:07;95909.44;;;10.96;77.78
4012;BME280;2020;48.682;9.024;2022-11-15T10:24:25;95906.78;;;11.04;77.43
4012;BME280;2020;48.682;9.024;2022-11-15T10:26:53;95902.16;;;11.15;77.89
4012;BME280;2020;48.682;9.024;2022-11-15T10:29:20;95902.50;;;11.11;76.04
4012;BME280;2020;48.682;9.024;2022-11-15T10:31:46;95898.13;;;11.12;77.41
4012;BME280;2020;48.682;9.024;2022-11-15T10:34:15;95895.63;;;11.19;77.16
4012;BME280;2020;48.682;9.024;2022-11-15T10:36:57;95897.22;;;11.28;76.93
4012;BME280;2020;48.682;9.024;2022-11-15T10:39:23;95881.91;;;11.25;77.00
4012;BME280;2020;48.682;9.024;2022-11-15T10:41:49;95886.47;;;11.23;78.00
4012;BME280;2020;48.682;9.024;2022-11-15T10:44:19;95874.63;;;11.20;75.25
4012;BME280;2020;48.682;9.024;2022-11-15T10:46:47;95883.53;;;11.26;77.02
4012;BME280;2020;48.682;9.024;2022-11-15T10:54:11;95871.56;;;11.17;75.03
4012;BME280;2020;48.682;9.024;2022-11-15T10:56:39;95872.88;;;11.12;74.98
4012;BME280;2020;48.682;9.024;2022-11-15T10:59:16;95864.44;;;11.10;74.89
4012;BME280;2020;48.682;9.024;2022-11-15T11:01:47;95873.22;;;11.09;75.47
4012;BME280;2020;48.682;9.024;2022-11-15T11:04:12;95865.06;;;11.12;74.91
4012;BME280;2020;48.682;9.024;2022-11-15T11:06:56;95861.41;;;11.22;76.27
4012;BME280;2020;48.682;9.024;2022-11-15T11:12:05;95854.94;;;11.18;76.14
4012;BME280;2020;48.682;9.024;2022-11-15T11:14:36;95852.00;;;11.21;76.85
4012;BME280;2020;48.682;9.024;2022-11-15T11:17:48;95858.66;;;11.23;75.13
4012;BME280;2020;48.682;9.024;2022-11-15T11:20:25;95858.44;;;11.33;76.13
4012;BME280;2020;48.682;9.024;2022-11-15T11:22:56;95859.69;;;11.37;74.81
4012;BME280;2020;48.682;9.024;2022-11-15T11:25:34;95852.53;;;11.39;75.03
4012;BME280;2020;48.682;9.024;2022-11-15T11:31:00;95838.84;;;11.37;74.29
4012;BME280;2020;48.682;9.024;2022-11-15T11:33:32;95838.94;;;11.44;75.56
4012;BME280;2020;48.682;9.024;2022-11-15T11:36:39;95826.41;;;11.48;75.18
4012;BME280;2020;48.682;9.024;2022-11-15T11:46:53;95813.91;;;11.58;75.45
4012;BME280;2020;48.682;9.024;2022-11-15T11:49:43;95808.25;;;11.54;75.60
4012;BME280;2020;48.682;9.024;2022-11-15T11:52:33;95809.41;;;11.52;74.27
4012;BME280;2020;48.682;9.024;2022-11-15T11:55:15;95797.38;;;11.51;74.30
4012;BME280;2020;48.682;9.024;2022-11-15T12:00:17;95795.41;;;11.53;74.91
4012;BME280;2020;48.682;9.024;2022-11-15T12:03:16;95794.34;;;11.62;75.68
4012;BME280;2020;48.682;9.024;2022-11-15T12:05:48;95788.84;;;11.57;75.38
4012;BME280;2020;48.682;9.024;2022-11-15T12:09:04;95787.50;;;11.61;74.89
4012;BME280;2020;48.682;9.024;2022-11-15T12:14:12;95781.38;;;11.54;74.42
4012;BME280;2020;48.682;9.024;2022-11-15T12:16:42;95790.28;;;11.60;78.15
4012;BME280;2020;48.682;9.024;2022-11-15T12:19:07;95783.00;;;11.55;75.08
4012;BME280;2020;48.682;9.024;2022-11-15T12:21:47;95778.78;;;11.54;75.58
4012;BME280;2020;48.682;9.024;2022-11-15T12:24:23;95780.41;;;11.55;74.75
4012;BME280;2020;48.682;9.024;2022-11-15T12:26:54;95774.56;;;11.53;76.52
4012;BME280;2020;48.682;9.024;2022-11-15T12:29:39;95776.97;;;11.54;76.70
4012;BME280;2020;48.682;9.024;2022-11-15T12:32:17;95767.09;;;11.50;74.81
4012;BME280;2020;48.682;9.024;2022-11-15T12:34:46;95767.72;;;11.52;76.64
4012;BME280;2020;48.682;9.024;2022-11-15T12:40:21;95765.47;;;11.49;75.48
4012;BME280;2020;48.682;9.024;2022-11-15T12:43:36;95760.41;;;11.47;75.67
4012;BME280;2020;48.682;9.024;2022-11-15T12:45:53;95758.19;;;11.59;74.93
4012;BME280;2020;48.682;9.024;2022-11-15T12:50:56;95761.78;;;11.58;74.89
4012;BME280;2020;48.682;9.024;2022-11-15T13:01:09;95748.22;;;11.48;74.72
4012;BME280;2020;48.682;9.024;2022-11-15T13:03:35;95745.25;;;11.51;76.17
4012;BME280;2020;48.682;9.024;2022-11-15T13:06:03;95741.03;;;11.50;76.63
4012;BME280;2020;48.682;9.024;2022-11-15T13:08:55;95736.44;;;11.52;76.04
4012;BME280;2020;48.682;9.024;2022-11-15T13:11:46;95730.88;;;11.55;75.05
4012;BME280;2020;48.682;9.024;2022-11-15T13:19:53;95725.03;;;11.53;76.12
4012;BME280;2020;48.682;9.024;2022-11-15T13:22:18;95715.88;;;11.57;74.76
4012;BME280;2020;48.682;9.024;2022-11-15T13:27:47;95710.75;;;11.49;75.64
4012;BME280;2020;48.682;9.024;2022-11-15T13:30:21;95711.09;;;11.46;75.46
4012;BME280;2020;48.682;9.024;2022-11-15T13:32:48;95697.72;;;11.49;76.31
4012;BME280;2020;48.682;9.024;2022-11-15T13:35:40;95700.69;;;11.46;79.91
4012;BME280;2020;48.682;9.024;2022-11-15T13:38:06;95696.47;;;11.45;77.47
4012;BME280;2020;48.682;9.024;2022-11-15T13:40:35;95687.66;;;11.46;78.67
4012;BME280;2020;48.682;9.024;2022-11-15T13:48:58;95683.44;;;11.45;78.76
4012;BME280;2020;48.682;9.024;2022-11-15T13:51:38;95674.88;;;11.36;78.89
4012;BME280;2020;48.682;9.024;2022-11-15T13:54:30;95671.03;;;11.32;78.74
4012;BME280;2020;48.682;9.024;2022-11-15T13:57:22;95663.41;;;11.30;80.23
4012;BME280;2020;48.682;9.024;2022-11-15T13:59:54;95664.41;;;11.29;80.61
4012;BME280;2020;48.682;9.024;2022-11-15T14:02:30;95659.19;;;11.29;81.48
4012;BME280;2020;48.682;9.024;2022-11-15T14:05:16;95658.81;;;11.32;80.93
4012;BME280;2020;48.682;9.024;2022-11-15T14:10:35;95653.25;;;11.35;81.90
4012;BME280;2020;48.682;9.024;2022-11-15T14:13:01;95642.84;;;11.35;81.92
4012;BME280;2020;48.682;9.024;2022-11-15T14:15:36;95640.84;;;11.37;81.71
4012;BME280;2020;48.682;9.024;2022-11-15T14:18:02;95639.66;;;11.40;81.94
4012;BME280;2020;48.682;9.024;2022-11-15T14:20:35;95638.50;;;11.43;81.20
4012;BME280;2020;48.682;9.024;2022-11-15T14:23:04;95632.69;;;11.40;80.71
4012;BME280;2020;48.682;9.024;2022-11-15T14:25:35;95626.84;;;11.38;81.96
4012;BME280;2020;48.682;9.024;2022-11-15T14:30:38;95622.00;;;11.35;81.37
4012;BME280;2020;48.682;9.024;2022-11-15T14:35:44;95615.94;;;11.20;81.63
4012;BME280;2020;48.682;9.024;2022-11-15T14:38:09;95613.34;;;11.20;81.60
4012;BME280;2020;48.682;9.024;2022-11-15T14:40:34;95607.16;;;11.21;81.33
4012;BME280;2020;48.682;9.024;2022-11-15T14:43:00;95597.28;;;11.16;81.68
4012;BME280;2020;48.682;9.024;2022-11-15T14:45:26;95601.66;;;11.16;80.80
4012;BME280;2020;48.682;9.024;2022-11-15T14:47:52;95604.28;;;11.16;80.80
4012;BME280;2020;48.682;9.024;2022-11-15T14:50:20;95597.53;;;11.06;80.93
4012;BME280;2020;48.682;9.024;2022-11-15T14:52:46;95599.16;;;11.07;80.49
4012;BME280;2020;48.682;9.024;2022-11-15T14:55:19;95588.75;;;11.07;80.98
4012;BME280;2020;48.682;9.024;2022-11-15T14:57:45;95587.84;;;11.00;81.89
4012;BME280;2020;48.682;9.024;2022-11-15T15:00:11;95583.63;;;10.99;81.22
4012;BME280;2020;48.682;9.024;2022-11-15T15:02:36;95584.63;;;10.98;81.86
4012;BME280;2020;48.682;9.024;2022-11-15T15:05:13;95576.19;;;10.96;81.54
4012;BME280;2020;48.682;9.024;2022-11-15T15:07:39;95578.97;;;10.94;82.49
4012;BME280;2020;48.682;9.024;2022-11-15T15:10:04;95571.69;;;10.90;82.43
4012;BME280;2020;48.682;9.024;2022-11-15T15:12:30;95570.06;;;10.89;82.71
4012;BME280;2020;48.682;9.024;2022-11-15T15:14:55;95566.41;;;10.83;82.52
4012;BME280;2020;48.682;9.024;2022-11-15T15:17:21;95563.97;;;10.81;83.89
4012;BME280;2020;48.682;9.024;2022-11-15T15:19:46;95563.06;;;10.74;84.46
4012;BME280;2020;48.682;9.024;2022-11-15T15:22:16;95563.41;;;10.71;84.94